地図

経路データ

SID SEASON NUMBER BASIN SUBBASIN NAME ISO_TIME NATURE LAT LON WMO_WIND WMO_PRES WMO_AGENCY TRACK_TYPE DIST2LAND LANDFALL IFLAG USA_AGENCY USA_ATCF_ID USA_LAT USA_LON USA_RECORD USA_STATUS USA_WIND USA_PRES USA_SSHS USA_R34_NE USA_R34_SE USA_R34_SW USA_R34_NW USA_R50_NE USA_R50_SE USA_R50_SW USA_R50_NW USA_R64_NE USA_R64_SE USA_R64_SW USA_R64_NW USA_POCI USA_ROCI USA_RMW USA_EYE TOKYO_LAT TOKYO_LON TOKYO_GRADE TOKYO_WIND TOKYO_PRES TOKYO_R50_DIR TOKYO_R50_LONG TOKYO_R50_SHORT TOKYO_R30_DIR TOKYO_R30_LONG TOKYO_R30_SHORT TOKYO_LAND CMA_LAT CMA_LON CMA_CAT CMA_WIND CMA_PRES HKO_LAT HKO_LON HKO_CAT HKO_WIND HKO_PRES NEWDELHI_LAT NEWDELHI_LON NEWDELHI_GRADE NEWDELHI_WIND NEWDELHI_PRES NEWDELHI_CI NEWDELHI_DP NEWDELHI_POCI REUNION_LAT REUNION_LON REUNION_TYPE REUNION_WIND REUNION_PRES REUNION_TNUM REUNION_CI REUNION_RMW REUNION_R34_NE REUNION_R34_SE REUNION_R34_SW REUNION_R34_NW REUNION_R50_NE REUNION_R50_SE REUNION_R50_SW REUNION_R50_NW REUNION_R64_NE REUNION_R64_SE REUNION_R64_SW REUNION_R64_NW BOM_LAT BOM_LON BOM_TYPE BOM_WIND BOM_PRES BOM_TNUM BOM_CI BOM_RMW BOM_R34_NE BOM_R34_SE BOM_R34_SW BOM_R34_NW BOM_R50_NE BOM_R50_SE BOM_R50_SW BOM_R50_NW BOM_R64_NE BOM_R64_SE BOM_R64_SW BOM_R64_NW BOM_ROCI BOM_POCI BOM_EYE BOM_POS_METHOD BOM_PRES_METHOD NADI_LAT NADI_LON NADI_CAT NADI_WIND NADI_PRES WELLINGTON_LAT WELLINGTON_LON WELLINGTON_WIND WELLINGTON_PRES DS824_LAT DS824_LON DS824_STAGE DS824_WIND DS824_PRES TD9636_LAT TD9636_LON TD9636_STAGE TD9636_WIND TD9636_PRES TD9635_LAT TD9635_LON TD9635_WIND TD9635_PRES TD9635_ROCI NEUMANN_LAT NEUMANN_LON NEUMANN_CLASS NEUMANN_WIND NEUMANN_PRES MLC_LAT MLC_LON MLC_CLASS MLC_WIND MLC_PRES USA_GUST BOM_GUST BOM_GUST_PER REUNION_GUST REUNION_GUST_PER USA_SEAHGT USA_SEARAD_NE USA_SEARAD_SE USA_SEARAD_SW USA_SEARAD_NW STORM_SPEED STORM_DIR
1942099N07149 1942 18 WP MM NOT_NAMED 1942-04-08 12:00:00 NR 7.00000 149.300 main 1041 1039 __________O___ -1 7.00000 149.300 2 8 289
1942099N07149 1942 18 WP MM NOT_NAMED 1942-04-08 15:00:00 NR 7.12194 148.936 main 1044 1044 __________P___ -1 7.12194 148.936 2 8 288
1942099N07149 1942 18 WP MM NOT_NAMED 1942-04-08 18:00:00 NR 7.24501 148.558 main 1050 1050 __________P___ -1 7.24501 148.558 2 8 288
1942099N07149 1942 18 WP MM NOT_NAMED 1942-04-08 21:00:00 NR 7.37059 148.150 main 1068 1066 __________P___ -1 7.37059 148.150 2 9 287
1942099N07149 1942 18 WP MM NOT_NAMED 1942-04-09 00:00:00 NR 7.50000 147.700 main 1076 1075 __________O___ -1 7.50000 147.700 2 10 286
1942099N07149 1942 18 WP MM NOT_NAMED 1942-04-09 03:00:00 NR 7.63479 147.199 main 1086 1086 __________P___ -1 7.63479 147.199 2 11 285
1942099N07149 1942 18 WP MM NOT_NAMED 1942-04-09 06:00:00 NR 7.77766 146.665 main 1109 1109 __________P___ -1 7.77766 146.665 2 11 286
1942099N07149 1942 18 WP MM NOT_NAMED 1942-04-09 09:00:00 NR 7.93166 146.124 main 1121 1121 __________P___ -1 7.93166 146.124 2 11 287
1942099N07149 1942 18 WP MM NOT_NAMED 1942-04-09 12:00:00 NR 8.10000 145.600 main 1148 1148 __________O___ -1 8.10000 145.600 3 11 290
1942099N07149 1942 18 WP MM NOT_NAMED 1942-04-09 15:00:00 NR 8.28941 145.128 main 1177 1177 __________P___ -1 8.28941 145.128 3 10 293
1942099N07149 1942 18 WP MM NOT_NAMED 1942-04-09 18:00:00 NR 8.49213 144.677 main 1206 1206 __________P___ -1 8.49213 144.677 3 10 295
1942099N07149 1942 18 WP MM NOT_NAMED 1942-04-09 21:00:00 NR 8.69880 144.238 main 1239 1239 __________P___ -1 8.69880 144.238 3 10 295
1942099N07149 1942 18 WP MM NOT_NAMED 1942-04-10 00:00:00 NR 8.90000 143.800 main 1271 1271 __________O___ -1 8.90000 143.800 4 10 296
1942099N07149 1942 18 WP MM NOT_NAMED 1942-04-10 03:00:00 NR 9.13076 143.350 main 1304 1304 __________P___ -1 9.13076 143.350 4 10 297
1942099N07149 1942 18 WP MM NOT_NAMED 1942-04-10 06:00:00 NR 9.34727 142.900 main 1327 1327 __________P___ -1 9.34727 142.900 4 10 293
1942099N07149 1942 18 WP MM NOT_NAMED 1942-04-10 09:00:00 NR 9.51514 142.450 main 1332 1323 __________P___ -1 9.51514 142.450 4 9 286
1942099N07149 1942 18 WP MM NOT_NAMED 1942-04-10 12:00:00 NR 9.60000 142.000 main 1323 1310 __________O___ -1 9.60000 142.000 4 9 274
1942099N07149 1942 18 WP MM NOT_NAMED 1942-04-10 15:00:00 NR 9.58158 141.525 main 1307 1284 __________P___ -1 9.58158 141.525 4 9 263
1942099N07149 1942 18 WP MM NOT_NAMED 1942-04-10 18:00:00 NR 9.47756 141.055 main 1284 1245 __________P___ -1 9.47756 141.055 4 9 253
1942099N07149 1942 18 WP MM NOT_NAMED 1942-04-10 21:00:00 NR 9.30974 140.607 main 1245 1207 __________P___ -1 9.30974 140.607 4 9 246
1942099N07149 1942 18 WP MM NOT_NAMED 1942-04-11 00:00:00 NR 9.10000 140.200 main 1207 1173 __________O___ -1 9.10000 140.200 4 8 238
1942099N07149 1942 18 WP MM NOT_NAMED 1942-04-11 03:00:00 NR 8.86517 139.885 main 1173 1130 __________P___ -1 8.86517 139.885 4 8 229
1942099N07149 1942 18 WP MM NOT_NAMED 1942-04-11 06:00:00 NR 8.59938 139.608 main 1130 1087 __________P___ -1 8.59938 139.608 4 8 226
1942099N07149 1942 18 WP MM NOT_NAMED 1942-04-11 09:00:00 NR 8.33393 139.326 main 1087 1054 __________P___ -1 8.33393 139.326 4 8 230
1942099N07149 1942 18 WP MM NOT_NAMED 1942-04-11 12:00:00 NR 8.10000 139.000 main 1054 1019 __________O___ -1 8.10000 139.000 4 9 239
1942099N07149 1942 18 WP MM NOT_NAMED 1942-04-11 15:00:00 NR 7.89439 138.583 main 1019 981 __________P___ -1 7.89439 138.583 4 10 247
1942099N07149 1942 18 WP MM NOT_NAMED 1942-04-11 18:00:00 NR 7.73000 138.117 main 981 956 __________P___ -1 7.73000 138.117 4 10 254
1942099N07149 1942 18 WP MM NOT_NAMED 1942-04-11 21:00:00 NR 7.62559 137.617 main 956 944 __________P___ -1 7.62559 137.617 4 10 263
1942099N07149 1942 18 WP MM NOT_NAMED 1942-04-12 00:00:00 NR 7.60000 137.100 main 944 938 __________O___ -1 7.60000 137.100 4 10 273
1942099N07149 1942 18 WP MM NOT_NAMED 1942-04-12 03:00:00 NR 7.67902 136.582 main 947 944 __________P___ -1 7.67902 136.582 4 11 283
1942099N07149 1942 18 WP MM NOT_NAMED 1942-04-12 06:00:00 NR 7.83246 136.051 main 954 953 __________P___ -1 7.83246 136.051 4 11 288
1942099N07149 1942 18 WP MM NOT_NAMED 1942-04-12 09:00:00 NR 8.01965 135.519 main 973 927 __________P___ -1 8.01965 135.519 4 11 289
1942099N07149 1942 18 WP MM NOT_NAMED 1942-04-12 12:00:00 NR 8.20000 135.000 main 927 873 __________O___ -1 8.20000 135.000 4 11 288
1942099N07149 1942 18 WP MM NOT_NAMED 1942-04-12 15:00:00 NR 8.34170 134.503 main 873 830 __________P___ -1 8.34170 134.503 4 10 284
1942099N07149 1942 18 WP MM NOT_NAMED 1942-04-12 18:00:00 NR 8.44779 134.025 main 819 776 __________P___ -1 8.44779 134.025 4 10 281
1942099N07149 1942 18 WP MM NOT_NAMED 1942-04-12 21:00:00 NR 8.52999 133.559 main 776 723 __________P___ -1 8.52999 133.559 4 9 279
1942099N07149 1942 18 WP MM NOT_NAMED 1942-04-13 00:00:00 NR 8.60000 133.100 main 723 __________O___ -1 8.60000 133.100 4 9 279

デジタル台風データ・検索

IBTrACS Databaseについて

本データベースは、米国NOAAが公開する1842年以降の世界の熱帯低気圧のベストトラックデータアーカイブInternational Best Track Archive for Climate Stewardship (IBTrACS)を、ウェブで閲覧しやすい形式に変換したものです。

最終更新日:2021-11-26